sensor_id;sensor_type;location;lat;lon;timestamp;P1;durP1;ratioP1;P2;durP2;ratioP2
2618;SDS011;1319;52.346;13.096;2023-07-29T00:00:45;17.60;;;9.10;;
2618;SDS011;1319;52.346;13.096;2023-07-29T00:03:11;12.90;;;8.70;;
2618;SDS011;1319;52.346;13.096;2023-07-29T00:05:36;16.50;;;9.33;;
2618;SDS011;1319;52.346;13.096;2023-07-29T00:08:02;17.70;;;8.93;;
2618;SDS011;1319;52.346;13.096;2023-07-29T00:10:27;14.83;;;9.40;;
2618;SDS011;1319;52.346;13.096;2023-07-29T00:12:52;14.73;;;9.37;;
2618;SDS011;1319;52.346;13.096;2023-07-29T00:15:17;14.10;;;8.43;;
2618;SDS011;1319;52.346;13.096;2023-07-29T00:17:43;13.10;;;9.40;;
2618;SDS011;1319;52.346;13.096;2023-07-29T00:20:08;11.17;;;9.20;;
2618;SDS011;1319;52.346;13.096;2023-07-29T00:22:33;14.17;;;8.60;;
2618;SDS011;1319;52.346;13.096;2023-07-29T00:24:59;14.20;;;9.07;;
2618;SDS011;1319;52.346;13.096;2023-07-29T00:27:24;12.17;;;9.20;;
2618;SDS011;1319;52.346;13.096;2023-07-29T00:29:49;18.27;;;9.17;;
2618;SDS011;1319;52.346;13.096;2023-07-29T00:32:15;11.37;;;9.60;;
2618;SDS011;1319;52.346;13.096;2023-07-29T00:34:40;11.90;;;9.17;;
2618;SDS011;1319;52.346;13.096;2023-07-29T00:37:05;13.77;;;10.00;;
2618;SDS011;1319;52.346;13.096;2023-07-29T00:39:31;13.97;;;8.70;;
2618;SDS011;1319;52.346;13.096;2023-07-29T00:41:56;14.23;;;9.73;;
2618;SDS011;1319;52.346;13.096;2023-07-29T00:44:21;13.27;;;8.90;;
2618;SDS011;1319;52.346;13.096;2023-07-29T00:46:47;11.50;;;9.30;;
2618;SDS011;1319;52.346;13.096;2023-07-29T00:49:14;12.67;;;9.33;;
2618;SDS011;1319;52.346;13.096;2023-07-29T00:51:39;12.07;;;9.40;;
2618;SDS011;1319;52.346;13.096;2023-07-29T00:54:04;12.60;;;9.00;;
2618;SDS011;1319;52.346;13.096;2023-07-29T00:56:29;18.73;;;9.50;;
2618;SDS011;1319;52.346;13.096;2023-07-29T00:58:55;10.37;;;8.83;;
2618;SDS011;1319;52.346;13.096;2023-07-29T01:01:24;15.07;;;8.90;;
2618;SDS011;1319;52.346;13.096;2023-07-29T01:03:49;18.33;;;8.93;;
2618;SDS011;1319;52.346;13.096;2023-07-29T01:06:26;13.80;;;9.30;;
2618;SDS011;1319;52.346;13.096;2023-07-29T01:09:03;12.23;;;9.23;;
2618;SDS011;1319;52.346;13.096;2023-07-29T01:13:58;13.80;;;8.93;;
2618;SDS011;1319;52.346;13.096;2023-07-29T01:16:50;11.50;;;8.90;;
2618;SDS011;1319;52.346;13.096;2023-07-29T01:19:15;15.03;;;8.47;;
2618;SDS011;1319;52.346;13.096;2023-07-29T01:21:48;17.03;;;6.80;;
2618;SDS011;1319;52.346;13.096;2023-07-29T01:24:14;7.40;;;5.87;;
2618;SDS011;1319;52.346;13.096;2023-07-29T01:26:39;39.00;;;5.40;;
2618;SDS011;1319;52.346;13.096;2023-07-29T01:29:05;5.30;;;4.80;;
2618;SDS011;1319;52.346;13.096;2023-07-29T01:31:38;5.00;;;4.60;;
2618;SDS011;1319;52.346;13.096;2023-07-29T01:34:09;8.23;;;5.40;;
2618;SDS011;1319;52.346;13.096;2023-07-29T01:36:38;9.77;;;6.07;;
2618;SDS011;1319;52.346;13.096;2023-07-29T01:39:06;9.63;;;5.40;;
2618;SDS011;1319;52.346;13.096;2023-07-29T01:41:32;6.40;;;5.40;;
2618;SDS011;1319;52.346;13.096;2023-07-29T01:43:58;9.90;;;6.10;;
2618;SDS011;1319;52.346;13.096;2023-07-29T01:46:23;10.07;;;6.37;;
2618;SDS011;1319;52.346;13.096;2023-07-29T01:48:48;9.20;;;5.73;;
2618;SDS011;1319;52.346;13.096;2023-07-29T01:51:14;13.20;;;5.67;;
2618;SDS011;1319;52.346;13.096;2023-07-29T01:53:39;11.47;;;5.97;;
2618;SDS011;1319;52.346;13.096;2023-07-29T01:56:04;17.90;;;6.63;;
2618;SDS011;1319;52.346;13.096;2023-07-29T01:58:29;11.07;;;5.93;;
2618;SDS011;1319;52.346;13.096;2023-07-29T02:00:55;8.53;;;5.87;;
2618;SDS011;1319;52.346;13.096;2023-07-29T02:03:20;9.07;;;5.30;;
2618;SDS011;1319;52.346;13.096;2023-07-29T02:05:45;9.03;;;5.13;;
2618;SDS011;1319;52.346;13.096;2023-07-29T02:08:11;5.30;;;4.80;;
2618;SDS011;1319;52.346;13.096;2023-07-29T02:10:36;7.73;;;5.20;;
2618;SDS011;1319;52.346;13.096;2023-07-29T02:13:01;25.83;;;5.67;;
2618;SDS011;1319;52.346;13.096;2023-07-29T02:15:26;5.43;;;4.93;;
2618;SDS011;1319;52.346;13.096;2023-07-29T02:17:52;5.80;;;4.97;;
2618;SDS011;1319;52.346;13.096;2023-07-29T02:20:18;7.57;;;6.23;;
2618;SDS011;1319;52.346;13.096;2023-07-29T02:22:43;8.70;;;5.67;;
2618;SDS011;1319;52.346;13.096;2023-07-29T02:25:08;6.13;;;5.53;;
2618;SDS011;1319;52.346;13.096;2023-07-29T02:27:35;6.23;;;5.30;;
2618;SDS011;1319;52.346;13.096;2023-07-29T02:30:00;6.87;;;5.60;;
2618;SDS011;1319;52.346;13.096;2023-07-29T02:32:25;8.50;;;5.60;;
2618;SDS011;1319;52.346;13.096;2023-07-29T02:34:51;6.90;;;6.20;;
2618;SDS011;1319;52.346;13.096;2023-07-29T02:37:16;5.90;;;5.30;;
2618;SDS011;1319;52.346;13.096;2023-07-29T02:39:42;7.13;;;5.60;;
2618;SDS011;1319;52.346;13.096;2023-07-29T02:42:07;12.23;;;5.17;;
2618;SDS011;1319;52.346;13.096;2023-07-29T02:44:32;8.50;;;4.80;;
2618;SDS011;1319;52.346;13.096;2023-07-29T02:46:57;4.10;;;3.70;;
2618;SDS011;1319;52.346;13.096;2023-07-29T02:49:23;3.33;;;3.13;;
2618;SDS011;1319;52.346;13.096;2023-07-29T02:51:48;3.80;;;3.50;;
2618;SDS011;1319;52.346;13.096;2023-07-29T02:54:14;8.07;;;3.20;;
2618;SDS011;1319;52.346;13.096;2023-07-29T02:56:39;6.47;;;3.50;;
2618;SDS011;1319;52.346;13.096;2023-07-29T02:59:04;3.97;;;3.50;;
2618;SDS011;1319;52.346;13.096;2023-07-29T03:01:30;4.40;;;4.10;;
2618;SDS011;1319;52.346;13.096;2023-07-29T03:03:55;4.10;;;3.80;;
2618;SDS011;1319;52.346;13.096;2023-07-29T03:06:20;4.43;;;4.03;;
2618;SDS011;1319;52.346;13.096;2023-07-29T03:08:45;5.20;;;4.73;;
2618;SDS011;1319;52.346;13.096;2023-07-29T03:11:12;7.13;;;6.17;;
2618;SDS011;1319;52.346;13.096;2023-07-29T03:13:37;9.47;;;5.33;;
2618;SDS011;1319;52.346;13.096;2023-07-29T03:18:31;10.17;;;6.10;;
2618;SDS011;1319;52.346;13.096;2023-07-29T03:20:56;8.17;;;5.40;;
2618;SDS011;1319;52.346;13.096;2023-07-29T03:23:21;8.97;;;5.37;;
2618;SDS011;1319;52.346;13.096;2023-07-29T03:25:48;6.00;;;5.40;;
2618;SDS011;1319;52.346;13.096;2023-07-29T03:28:13;7.93;;;5.07;;
2618;SDS011;1319;52.346;13.096;2023-07-29T03:30:38;5.67;;;4.80;;
2618;SDS011;1319;52.346;13.096;2023-07-29T03:33:04;12.97;;;4.80;;
2618;SDS011;1319;52.346;13.096;2023-07-29T03:35:29;4.90;;;4.50;;
2618;SDS011;1319;52.346;13.096;2023-07-29T03:37:55;5.80;;;4.33;;
2618;SDS011;1319;52.346;13.096;2023-07-29T03:40:20;7.70;;;4.40;;
2618;SDS011;1319;52.346;13.096;2023-07-29T03:42:45;5.47;;;4.40;;
2618;SDS011;1319;52.346;13.096;2023-07-29T03:45:10;5.33;;;4.83;;
2618;SDS011;1319;52.346;13.096;2023-07-29T03:47:36;12.70;;;4.90;;
2618;SDS011;1319;52.346;13.096;2023-07-29T03:50:02;5.20;;;4.80;;
2618;SDS011;1319;52.346;13.096;2023-07-29T03:52:27;6.70;;;4.77;;
2618;SDS011;1319;52.346;13.096;2023-07-29T03:54:52;9.17;;;4.97;;
2618;SDS011;1319;52.346;13.096;2023-07-29T03:57:17;5.97;;;5.23;;
2618;SDS011;1319;52.346;13.096;2023-07-29T03:59:43;8.23;;;4.57;;
2618;SDS011;1319;52.346;13.096;2023-07-29T04:02:08;4.10;;;3.80;;
2618;SDS011;1319;52.346;13.096;2023-07-29T04:04:34;5.63;;;4.10;;
2618;SDS011;1319;52.346;13.096;2023-07-29T04:06:59;7.97;;;4.53;;
2618;SDS011;1319;52.346;13.096;2023-07-29T04:09:25;4.97;;;4.57;;
2618;SDS011;1319;52.346;13.096;2023-07-29T04:11:50;6.10;;;5.50;;
2618;SDS011;1319;52.346;13.096;2023-07-29T04:14:16;6.73;;;6.03;;
2618;SDS011;1319;52.346;13.096;2023-07-29T04:16:41;7.80;;;7.00;;
2618;SDS011;1319;52.346;13.096;2023-07-29T04:19:06;6.30;;;5.70;;
2618;SDS011;1319;52.346;13.096;2023-07-29T04:21:31;6.30;;;5.70;;
2618;SDS011;1319;52.346;13.096;2023-07-29T04:23:57;5.97;;;5.10;;
2618;SDS011;1319;52.346;13.096;2023-07-29T04:26:22;8.80;;;5.90;;
2618;SDS011;1319;52.346;13.096;2023-07-29T04:28:47;8.70;;;6.50;;
2618;SDS011;1319;52.346;13.096;2023-07-29T04:31:12;9.10;;;6.60;;
2618;SDS011;1319;52.346;13.096;2023-07-29T04:33:37;9.73;;;7.97;;
2618;SDS011;1319;52.346;13.096;2023-07-29T04:36:03;12.53;;;7.33;;
2618;SDS011;1319;52.346;13.096;2023-07-29T04:38:32;10.03;;;8.23;;
2618;SDS011;1319;52.346;13.096;2023-07-29T04:40:58;11.53;;;8.60;;
2618;SDS011;1319;52.346;13.096;2023-07-29T04:43:26;14.03;;;9.00;;
2618;SDS011;1319;52.346;13.096;2023-07-29T04:45:51;11.73;;;8.97;;
2618;SDS011;1319;52.346;13.096;2023-07-29T04:48:17;9.97;;;8.77;;
2618;SDS011;1319;52.346;13.096;2023-07-29T04:50:42;14.20;;;10.40;;
2618;SDS011;1319;52.346;13.096;2023-07-29T04:53:07;11.37;;;8.40;;
2618;SDS011;1319;52.346;13.096;2023-07-29T04:55:32;13.93;;;9.90;;
2618;SDS011;1319;52.346;13.096;2023-07-29T04:57:58;14.43;;;9.33;;
2618;SDS011;1319;52.346;13.096;2023-07-29T05:00:25;13.47;;;10.03;;
2618;SDS011;1319;52.346;13.096;2023-07-29T05:02:50;16.93;;;10.97;;
2618;SDS011;1319;52.346;13.096;2023-07-29T05:05:15;14.07;;;11.57;;
2618;SDS011;1319;52.346;13.096;2023-07-29T05:07:40;19.33;;;11.00;;
2618;SDS011;1319;52.346;13.096;2023-07-29T05:10:06;15.63;;;10.97;;
2618;SDS011;1319;52.346;13.096;2023-07-29T05:12:31;16.53;;;10.60;;
2618;SDS011;1319;52.346;13.096;2023-07-29T05:14:57;14.07;;;11.13;;
2618;SDS011;1319;52.346;13.096;2023-07-29T05:17:23;17.00;;;10.20;;
2618;SDS011;1319;52.346;13.096;2023-07-29T05:19:48;15.23;;;10.97;;
2618;SDS011;1319;52.346;13.096;2023-07-29T05:22:13;14.63;;;9.80;;
2618;SDS011;1319;52.346;13.096;2023-07-29T05:24:38;13.57;;;10.27;;
2618;SDS011;1319;52.346;13.096;2023-07-29T05:27:04;15.63;;;10.77;;
2618;SDS011;1319;52.346;13.096;2023-07-29T05:29:29;11.60;;;10.20;;
2618;SDS011;1319;52.346;13.096;2023-07-29T05:31:54;13.43;;;10.10;;
2618;SDS011;1319;52.346;13.096;2023-07-29T05:34:19;12.17;;;9.33;;
2618;SDS011;1319;52.346;13.096;2023-07-29T05:36:45;13.70;;;9.70;;
2618;SDS011;1319;52.346;13.096;2023-07-29T05:39:10;10.33;;;9.10;;
2618;SDS011;1319;52.346;13.096;2023-07-29T05:41:37;10.70;;;9.60;;
2618;SDS011;1319;52.346;13.096;2023-07-29T05:44:02;11.97;;;8.90;;
2618;SDS011;1319;52.346;13.096;2023-07-29T05:46:27;12.77;;;9.43;;
2618;SDS011;1319;52.346;13.096;2023-07-29T05:48:52;9.70;;;8.73;;
2618;SDS011;1319;52.346;13.096;2023-07-29T05:51:18;12.00;;;9.37;;
2618;SDS011;1319;52.346;13.096;2023-07-29T05:53:44;13.97;;;8.63;;
2618;SDS011;1319;52.346;13.096;2023-07-29T05:56:09;11.47;;;9.27;;
2618;SDS011;1319;52.346;13.096;2023-07-29T05:58:35;12.77;;;8.20;;
2618;SDS011;1319;52.346;13.096;2023-07-29T06:01:00;9.37;;;8.40;;
2618;SDS011;1319;52.346;13.096;2023-07-29T06:03:26;10.63;;;8.70;;
2618;SDS011;1319;52.346;13.096;2023-07-29T06:05:51;9.50;;;7.97;;
2618;SDS011;1319;52.346;13.096;2023-07-29T06:08:17;10.37;;;7.37;;
2618;SDS011;1319;52.346;13.096;2023-07-29T06:10:42;18.57;;;8.07;;
2618;SDS011;1319;52.346;13.096;2023-07-29T06:13:07;14.57;;;7.77;;
2618;SDS011;1319;52.346;13.096;2023-07-29T06:15:33;11.33;;;7.10;;
2618;SDS011;1319;52.346;13.096;2023-07-29T06:17:58;8.23;;;7.43;;
2618;SDS011;1319;52.346;13.096;2023-07-29T06:20:23;7.87;;;6.93;;
2618;SDS011;1319;52.346;13.096;2023-07-29T06:22:48;11.13;;;7.30;;
2618;SDS011;1319;52.346;13.096;2023-07-29T06:25:14;9.83;;;7.13;;
2618;SDS011;1319;52.346;13.096;2023-07-29T06:27:39;7.13;;;6.17;;
2618;SDS011;1319;52.346;13.096;2023-07-29T06:30:04;9.87;;;6.63;;
2618;SDS011;1319;52.346;13.096;2023-07-29T06:32:30;10.70;;;6.05;;
2618;SDS011;1319;52.346;13.096;2023-07-29T06:34:55;7.20;;;6.27;;
2618;SDS011;1319;52.346;13.096;2023-07-29T06:37:20;6.10;;;5.50;;
2618;SDS011;1319;52.346;13.096;2023-07-29T06:39:46;6.97;;;6.38;;
2618;SDS011;1319;52.346;13.096;2023-07-29T06:42:12;5.80;;;5.30;;
2618;SDS011;1319;52.346;13.096;2023-07-29T06:44:37;5.63;;;5.13;;
2618;SDS011;1319;52.346;13.096;2023-07-29T06:47:02;6.00;;;5.50;;
2618;SDS011;1319;52.346;13.096;2023-07-29T06:49:27;5.13;;;4.68;;
2618;SDS011;1319;52.346;13.096;2023-07-29T06:51:53;5.68;;;4.70;;
2618;SDS011;1319;52.346;13.096;2023-07-29T06:54:18;5.20;;;4.70;;
2618;SDS011;1319;52.346;13.096;2023-07-29T06:56:43;4.43;;;4.05;;
2618;SDS011;1319;52.346;13.096;2023-07-29T06:59:08;4.32;;;3.97;;
2618;SDS011;1319;52.346;13.096;2023-07-29T07:01:34;4.72;;;4.32;;
2618;SDS011;1319;52.346;13.096;2023-07-29T07:03:59;8.82;;;4.30;;
2618;SDS011;1319;52.346;13.096;2023-07-29T07:06:24;7.10;;;4.38;;
2618;SDS011;1319;52.346;13.096;2023-07-29T07:08:50;4.50;;;4.20;;
2618;SDS011;1319;52.346;13.096;2023-07-29T07:11:15;4.28;;;3.80;;
2618;SDS011;1319;52.346;13.096;2023-07-29T07:13:41;4.00;;;3.60;;
2618;SDS011;1319;52.346;13.096;2023-07-29T07:16:06;9.70;;;3.92;;
2618;SDS011;1319;52.346;13.096;2023-07-29T07:18:31;3.80;;;3.50;;
2618;SDS011;1319;52.346;13.096;2023-07-29T07:20:56;3.88;;;3.58;;
2618;SDS011;1319;52.346;13.096;2023-07-29T07:23:21;5.00;;;3.28;;
2618;SDS011;1319;52.346;13.096;2023-07-29T07:25:47;3.53;;;3.30;;
2618;SDS011;1319;52.346;13.096;2023-07-29T07:28:12;4.07;;;3.22;;
2618;SDS011;1319;52.346;13.096;2023-07-29T07:30:40;4.07;;;3.50;;
2618;SDS011;1319;52.346;13.096;2023-07-29T07:33:08;3.40;;;3.10;;
2618;SDS011;1319;52.346;13.096;2023-07-29T07:35:33;4.35;;;3.60;;
2618;SDS011;1319;52.346;13.096;2023-07-29T07:37:59;4.68;;;3.78;;
2618;SDS011;1319;52.346;13.096;2023-07-29T07:40:26;3.75;;;3.45;;
2618;SDS011;1319;52.346;13.096;2023-07-29T07:42:52;3.50;;;3.17;;
2618;SDS011;1319;52.346;13.096;2023-07-29T07:45:17;3.40;;;3.13;;
2618;SDS011;1319;52.346;13.096;2023-07-29T07:47:43;2.90;;;2.80;;
2618;SDS011;1319;52.346;13.096;2023-07-29T07:50:08;3.45;;;3.25;;
2618;SDS011;1319;52.346;13.096;2023-07-29T07:52:33;3.45;;;3.10;;
2618;SDS011;1319;52.346;13.096;2023-07-29T07:54:58;3.40;;;3.10;;
2618;SDS011;1319;52.346;13.096;2023-07-29T07:57:24;2.92;;;2.72;;
2618;SDS011;1319;52.346;13.096;2023-07-29T07:59:49;4.63;;;2.72;;
2618;SDS011;1319;52.346;13.096;2023-07-29T08:02:15;2.78;;;2.58;;
2618;SDS011;1319;52.346;13.096;2023-07-29T08:04:41;3.47;;;2.85;;
2618;SDS011;1319;52.346;13.096;2023-07-29T08:07:06;2.80;;;2.60;;
2618;SDS011;1319;52.346;13.096;2023-07-29T08:09:31;2.60;;;2.50;;
2618;SDS011;1319;52.346;13.096;2023-07-29T08:11:56;2.88;;;2.67;;
2618;SDS011;1319;52.346;13.096;2023-07-29T08:14:22;2.38;;;2.28;;
2618;SDS011;1319;52.346;13.096;2023-07-29T08:16:47;7.32;;;3.20;;
2618;SDS011;1319;52.346;13.096;2023-07-29T08:19:12;3.63;;;2.40;;
2618;SDS011;1319;52.346;13.096;2023-07-29T08:21:37;6.20;;;2.70;;
2618;SDS011;1319;52.346;13.096;2023-07-29T08:24:03;3.33;;;2.40;;
2618;SDS011;1319;52.346;13.096;2023-07-29T08:26:28;3.20;;;2.38;;
2618;SDS011;1319;52.346;13.096;2023-07-29T08:28:54;2.47;;;2.38;;
2618;SDS011;1319;52.346;13.096;2023-07-29T08:31:19;2.75;;;2.45;;
2618;SDS011;1319;52.346;13.096;2023-07-29T08:33:44;3.30;;;2.30;;
2618;SDS011;1319;52.346;13.096;2023-07-29T08:36:09;2.17;;;2.08;;
2618;SDS011;1319;52.346;13.096;2023-07-29T08:38:34;2.35;;;2.25;;
2618;SDS011;1319;52.346;13.096;2023-07-29T08:41:05;5.00;;;2.38;;
2618;SDS011;1319;52.346;13.096;2023-07-29T08:43:31;2.45;;;2.33;;
2618;SDS011;1319;52.346;13.096;2023-07-29T08:45:58;7.55;;;2.30;;
2618;SDS011;1319;52.346;13.096;2023-07-29T08:48:24;2.05;;;2.00;;
2618;SDS011;1319;52.346;13.096;2023-07-29T08:50:54;2.50;;;2.40;;
2618;SDS011;1319;52.346;13.096;2023-07-29T08:53:20;3.63;;;2.30;;
2618;SDS011;1319;52.346;13.096;2023-07-29T08:55:47;2.45;;;2.25;;
2618;SDS011;1319;52.346;13.096;2023-07-29T08:58:13;1.90;;;1.90;;
2618;SDS011;1319;52.346;13.096;2023-07-29T09:00:38;2.22;;;2.08;;
2618;SDS011;1319;52.346;13.096;2023-07-29T09:03:04;2.65;;;2.17;;
2618;SDS011;1319;52.346;13.096;2023-07-29T09:05:32;2.10;;;2.00;;
2618;SDS011;1319;52.346;13.096;2023-07-29T09:07:58;2.30;;;2.20;;
2618;SDS011;1319;52.346;13.096;2023-07-29T09:10:24;2.63;;;2.50;;
2618;SDS011;1319;52.346;13.096;2023-07-29T09:12:50;2.00;;;2.00;;
2618;SDS011;1319;52.346;13.096;2023-07-29T09:15:32;1.92;;;1.83;;
2618;SDS011;1319;52.346;13.096;2023-07-29T09:17:58;1.80;;;1.80;;
2618;SDS011;1319;52.346;13.096;2023-07-29T09:20:26;2.05;;;1.95;;
2618;SDS011;1319;52.346;13.096;2023-07-29T09:22:55;2.30;;;2.17;;
2618;SDS011;1319;52.346;13.096;2023-07-29T09:25:23;2.22;;;2.13;;
2618;SDS011;1319;52.346;13.096;2023-07-29T09:27:49;2.97;;;2.65;;
2618;SDS011;1319;52.346;13.096;2023-07-29T09:30:17;2.22;;;2.13;;
2618;SDS011;1319;52.346;13.096;2023-07-29T09:32:42;2.00;;;1.90;;
2618;SDS011;1319;52.346;13.096;2023-07-29T09:35:11;2.03;;;2.03;;
2618;SDS011;1319;52.346;13.096;2023-07-29T09:37:37;1.80;;;1.80;;
2618;SDS011;1319;52.346;13.096;2023-07-29T09:40:03;2.20;;;2.10;;
2618;SDS011;1319;52.346;13.096;2023-07-29T09:42:28;2.25;;;2.15;;
2618;SDS011;1319;52.346;13.096;2023-07-29T09:44:53;2.92;;;2.22;;
2618;SDS011;1319;52.346;13.096;2023-07-29T09:47:22;3.80;;;1.98;;
2618;SDS011;1319;52.346;13.096;2023-07-29T09:49:47;2.35;;;2.25;;
2618;SDS011;1319;52.346;13.096;2023-07-29T09:52:14;3.05;;;2.10;;
2618;SDS011;1319;52.346;13.096;2023-07-29T09:54:39;2.33;;;2.13;;
2618;SDS011;1319;52.346;13.096;2023-07-29T09:57:06;2.35;;;1.88;;
2618;SDS011;1319;52.346;13.096;2023-07-29T09:59:35;2.15;;;2.05;;
2618;SDS011;1319;52.346;13.096;2023-07-29T10:02:00;2.33;;;2.10;;
2618;SDS011;1319;52.346;13.096;2023-07-29T10:04:25;2.35;;;1.98;;
2618;SDS011;1319;52.346;13.096;2023-07-29T10:06:51;2.28;;;2.00;;
2618;SDS011;1319;52.346;13.096;2023-07-29T10:09:17;2.10;;;2.00;;
2618;SDS011;1319;52.346;13.096;2023-07-29T10:11:42;2.30;;;2.20;;
2618;SDS011;1319;52.346;13.096;2023-07-29T10:14:08;2.08;;;1.98;;
2618;SDS011;1319;52.346;13.096;2023-07-29T10:16:34;3.17;;;2.10;;
2618;SDS011;1319;52.346;13.096;2023-07-29T10:18:59;2.00;;;1.90;;
2618;SDS011;1319;52.346;13.096;2023-07-29T10:21:25;2.10;;;2.00;;
2618;SDS011;1319;52.346;13.096;2023-07-29T10:23:50;1.80;;;1.70;;
2618;SDS011;1319;52.346;13.096;2023-07-29T10:26:18;2.00;;;1.90;;
2618;SDS011;1319;52.346;13.096;2023-07-29T10:28:46;4.88;;;1.90;;
2618;SDS011;1319;52.346;13.096;2023-07-29T10:31:11;2.08;;;1.98;;
2618;SDS011;1319;52.346;13.096;2023-07-29T10:33:37;2.25;;;2.10;;
2618;SDS011;1319;52.346;13.096;2023-07-29T10:36:03;2.30;;;2.20;;
2618;SDS011;1319;52.346;13.096;2023-07-29T10:38:29;5.15;;;2.20;;
2618;SDS011;1319;52.346;13.096;2023-07-29T10:40:55;2.33;;;2.10;;
2618;SDS011;1319;52.346;13.096;2023-07-29T10:43:35;7.68;;;2.42;;
2618;SDS011;1319;52.346;13.096;2023-07-29T10:46:18;9.23;;;2.97;;
2618;SDS011;1319;52.346;13.096;2023-07-29T10:48:44;14.50;;;3.80;;
2618;SDS011;1319;52.346;13.096;2023-07-29T10:51:23;4.63;;;2.95;;
2618;SDS011;1319;52.346;13.096;2023-07-29T10:53:57;4.97;;;3.40;;
2618;SDS011;1319;52.346;13.096;2023-07-29T10:56:26;5.47;;;3.30;;
2618;SDS011;1319;52.346;13.096;2023-07-29T10:58:52;5.18;;;2.95;;
2618;SDS011;1319;52.346;13.096;2023-07-29T11:01:29;3.78;;;2.53;;
2618;SDS011;1319;52.346;13.096;2023-07-29T11:09:41;3.75;;;2.63;;
2618;SDS011;1319;52.346;13.096;2023-07-29T11:14:51;3.28;;;2.92;;
2618;SDS011;1319;52.346;13.096;2023-07-29T11:17:16;4.07;;;2.72;;
2618;SDS011;1319;52.346;13.096;2023-07-29T11:19:42;3.47;;;3.00;;
2618;SDS011;1319;52.346;13.096;2023-07-29T11:22:07;5.47;;;3.00;;
2618;SDS011;1319;52.346;13.096;2023-07-29T11:24:34;2.83;;;2.63;;
2618;SDS011;1319;52.346;13.096;2023-07-29T11:26:59;5.20;;;2.97;;
2618;SDS011;1319;52.346;13.096;2023-07-29T11:29:24;3.65;;;2.92;;
2618;SDS011;1319;52.346;13.096;2023-07-29T11:31:50;7.30;;;2.85;;
2618;SDS011;1319;52.346;13.096;2023-07-29T11:34:16;5.40;;;3.00;;
2618;SDS011;1319;52.346;13.096;2023-07-29T11:36:45;3.65;;;2.72;;
2618;SDS011;1319;52.346;13.096;2023-07-29T11:39:10;3.38;;;3.00;;
2618;SDS011;1319;52.346;13.096;2023-07-29T11:41:36;3.33;;;2.58;;
2618;SDS011;1319;52.346;13.096;2023-07-29T11:44:02;3.05;;;2.70;;
2618;SDS011;1319;52.346;13.096;2023-07-29T11:46:27;5.13;;;3.00;;
2618;SDS011;1319;52.346;13.096;2023-07-29T11:48:53;6.07;;;3.10;;
2618;SDS011;1319;52.346;13.096;2023-07-29T11:51:19;6.90;;;3.50;;
2618;SDS011;1319;52.346;13.096;2023-07-29T11:53:44;3.58;;;3.28;;
2618;SDS011;1319;52.346;13.096;2023-07-29T11:56:10;3.95;;;3.05;;
2618;SDS011;1319;52.346;13.096;2023-07-29T11:58:36;2.60;;;2.40;;
2618;SDS011;1319;52.346;13.096;2023-07-29T12:01:03;1.90;;;1.80;;
2618;SDS011;1319;52.346;13.096;2023-07-29T12:03:28;1.75;;;1.65;;
2618;SDS011;1319;52.346;13.096;2023-07-29T12:05:54;1.92;;;1.33;;
2618;SDS011;1319;52.346;13.096;2023-07-29T12:08:19;1.60;;;1.50;;
2618;SDS011;1319;52.346;13.096;2023-07-29T12:10:44;1.45;;;1.30;;
2618;SDS011;1319;52.346;13.096;2023-07-29T12:13:10;4.28;;;1.30;;
2618;SDS011;1319;52.346;13.096;2023-07-29T12:15:37;1.20;;;1.20;;
2618;SDS011;1319;52.346;13.096;2023-07-29T12:18:02;1.92;;;1.33;;
2618;SDS011;1319;52.346;13.096;2023-07-29T12:20:29;1.55;;;1.30;;
2618;SDS011;1319;52.346;13.096;2023-07-29T12:23:00;1.15;;;1.02;;
2618;SDS011;1319;52.346;13.096;2023-07-29T12:25:30;3.55;;;1.23;;
2618;SDS011;1319;52.346;13.096;2023-07-29T12:27:56;3.10;;;1.20;;
2618;SDS011;1319;52.346;13.096;2023-07-29T12:30:21;6.18;;;1.02;;
2618;SDS011;1319;52.346;13.096;2023-07-29T12:32:47;1.05;;;1.05;;
2618;SDS011;1319;52.346;13.096;2023-07-29T12:35:13;1.85;;;1.10;;
2618;SDS011;1319;52.346;13.096;2023-07-29T12:37:38;1.48;;;1.30;;
2618;SDS011;1319;52.346;13.096;2023-07-29T12:40:07;1.42;;;1.33;;
2618;SDS011;1319;52.346;13.096;2023-07-29T12:42:32;2.15;;;1.45;;
2618;SDS011;1319;52.346;13.096;2023-07-29T12:44:57;1.42;;;1.33;;
2618;SDS011;1319;52.346;13.096;2023-07-29T12:47:23;3.25;;;1.50;;
2618;SDS011;1319;52.346;13.096;2023-07-29T12:49:48;1.50;;;1.40;;
2618;SDS011;1319;52.346;13.096;2023-07-29T12:52:13;3.65;;;1.80;;
2618;SDS011;1319;52.346;13.096;2023-07-29T12:54:38;1.95;;;1.45;;
2618;SDS011;1319;52.346;13.096;2023-07-29T12:57:05;2.75;;;1.48;;
2618;SDS011;1319;52.346;13.096;2023-07-29T12:59:30;2.60;;;1.70;;
2618;SDS011;1319;52.346;13.096;2023-07-29T13:01:56;1.73;;;1.67;;
2618;SDS011;1319;52.346;13.096;2023-07-29T13:04:21;1.88;;;1.60;;
2618;SDS011;1319;52.346;13.096;2023-07-29T13:06:46;3.65;;;1.70;;
2618;SDS011;1319;52.346;13.096;2023-07-29T13:09:11;1.90;;;1.80;;
2618;SDS011;1319;52.346;13.096;2023-07-29T13:11:36;1.88;;;1.70;;
2618;SDS011;1319;52.346;13.096;2023-07-29T13:14:02;1.85;;;1.75;;
2618;SDS011;1319;52.346;13.096;2023-07-29T13:16:27;2.28;;;1.70;;
2618;SDS011;1319;52.346;13.096;2023-07-29T13:18:53;2.83;;;2.03;;
2618;SDS011;1319;52.346;13.096;2023-07-29T13:21:18;4.10;;;1.60;;
2618;SDS011;1319;52.346;13.096;2023-07-29T13:23:43;1.70;;;1.60;;
2618;SDS011;1319;52.346;13.096;2023-07-29T13:26:08;2.67;;;1.55;;
2618;SDS011;1319;52.346;13.096;2023-07-29T13:28:34;2.22;;;1.40;;
2618;SDS011;1319;52.346;13.096;2023-07-29T13:30:59;2.95;;;1.30;;
2618;SDS011;1319;52.346;13.096;2023-07-29T13:33:24;1.10;;;1.10;;
2618;SDS011;1319;52.346;13.096;2023-07-29T13:35:49;1.20;;;1.20;;
2618;SDS011;1319;52.346;13.096;2023-07-29T13:38:15;6.60;;;1.40;;
2618;SDS011;1319;52.346;13.096;2023-07-29T13:40:41;1.30;;;1.30;;
2618;SDS011;1319;52.346;13.096;2023-07-29T13:43:06;2.10;;;1.27;;
2618;SDS011;1319;52.346;13.096;2023-07-29T13:45:31;2.28;;;1.33;;
2618;SDS011;1319;52.346;13.096;2023-07-29T13:47:56;3.90;;;1.25;;
2618;SDS011;1319;52.346;13.096;2023-07-29T13:50:22;1.58;;;1.50;;
2618;SDS011;1319;52.346;13.096;2023-07-29T13:52:47;2.25;;;1.50;;
2618;SDS011;1319;52.346;13.096;2023-07-29T13:55:13;1.40;;;1.30;;
2618;SDS011;1319;52.346;13.096;2023-07-29T13:57:38;1.50;;;1.40;;
2618;SDS011;1319;52.346;13.096;2023-07-29T14:00:05;2.95;;;1.40;;
2618;SDS011;1319;52.346;13.096;2023-07-29T14:02:30;2.78;;;1.27;;
2618;SDS011;1319;52.346;13.096;2023-07-29T14:04:56;1.20;;;1.20;;
2618;SDS011;1319;52.346;13.096;2023-07-29T14:07:21;2.55;;;1.55;;
2618;SDS011;1319;52.346;13.096;2023-07-29T14:09:46;1.80;;;1.15;;
2618;SDS011;1319;52.346;13.096;2023-07-29T14:12:12;2.55;;;1.20;;
2618;SDS011;1319;52.346;13.096;2023-07-29T14:14:39;1.00;;;1.00;;
2618;SDS011;1319;52.346;13.096;2023-07-29T14:17:05;1.65;;;1.30;;
2618;SDS011;1319;52.346;13.096;2023-07-29T14:19:31;1.50;;;1.40;;
2618;SDS011;1319;52.346;13.096;2023-07-29T14:21:56;1.50;;;1.40;;
2618;SDS011;1319;52.346;13.096;2023-07-29T14:24:21;1.33;;;1.20;;
2618;SDS011;1319;52.346;13.096;2023-07-29T14:26:47;1.48;;;1.30;;
2618;SDS011;1319;52.346;13.096;2023-07-29T14:29:12;1.55;;;1.33;;
2618;SDS011;1319;52.346;13.096;2023-07-29T14:31:38;1.50;;;1.33;;
2618;SDS011;1319;52.346;13.096;2023-07-29T14:34:03;1.13;;;1.13;;
2618;SDS011;1319;52.346;13.096;2023-07-29T14:36:28;2.50;;;1.30;;
2618;SDS011;1319;52.346;13.096;2023-07-29T14:38:53;1.45;;;1.20;;
2618;SDS011;1319;52.346;13.096;2023-07-29T14:41:19;1.50;;;1.10;;
2618;SDS011;1319;52.346;13.096;2023-07-29T14:43:44;3.90;;;1.10;;
2618;SDS011;1319;52.346;13.096;2023-07-29T14:46:09;1.08;;;1.08;;
2618;SDS011;1319;52.346;13.096;2023-07-29T14:48:34;1.38;;;1.27;;
2618;SDS011;1319;52.346;13.096;2023-07-29T14:50:59;2.25;;;1.38;;
2618;SDS011;1319;52.346;13.096;2023-07-29T14:53:25;1.50;;;1.40;;
2618;SDS011;1319;52.346;13.096;2023-07-29T14:55:50;4.93;;;1.30;;
2618;SDS011;1319;52.346;13.096;2023-07-29T14:58:15;1.20;;;1.20;;
2618;SDS011;1319;52.346;13.096;2023-07-29T15:00:40;1.20;;;1.20;;
2618;SDS011;1319;52.346;13.096;2023-07-29T15:03:06;2.90;;;1.27;;